Time;durP1;ratioP1;P1;durP2;ratioP2;P2;SDS_P1;SDS_P2;PMS_P1;PMS_P2;Temp;Humidity;BMP_temperature;BMP_pressure;BME280_temperature;BME280_humidity;BME280_pressure;Samples;Min_cycle;Max_cycle;Signal;HPM_P1;HPM_P2
2022/03/14 00:01:04;;;;;;;1.55;1.25;;;;;;;15.56;41.58;101612.50;4986994;28;114008;-79
2022/03/14 00:03:38;;;;;;;2.20;1.60;;;;;;;15.55;41.66;101616.09;4970021;28;123765;-79
2022/03/14 00:06:07;;;;;;;1.90;1.38;;;;;;;15.53;41.76;101618.00;4970198;28;121963;-79
2022/03/14 00:08:44;;;;;;;2.13;1.33;;;;;;;15.53;41.90;101618.00;4988931;28;114074;-80
2022/03/14 00:11:16;;;;;;;1.85;1.30;;;;;;;15.53;41.95;101623.31;4970916;28;114169;-78
2022/03/14 00:13:46;;;;;;;1.83;1.40;;;;;;;15.50;41.82;101623.47;4969178;28;124112;-78
2022/03/14 00:16:25;;;;;;;2.85;1.50;;;;;;;15.50;42.12;101623.47;4970440;28;123116;-78
2022/03/14 00:18:57;;;;;;;2.15;1.60;;;;;;;15.48;42.18;101630.72;4968162;28;114121;-78
2022/03/14 00:21:26;;;;;;;2.08;1.40;;;;;;;15.47;42.41;101634.34;4968389;28;113949;-78
2022/03/14 00:23:55;;;;;;;2.22;1.52;;;;;;;15.45;42.35;101636.22;4969094;28;123038;-78
2022/03/14 00:26:23;;;;;;;1.83;1.35;;;;;;;15.41;42.64;101634.63;4968956;28;122898;-79
2022/03/14 00:28:52;;;;;;;2.20;1.60;;;;;;;15.41;42.59;101634.63;4970977;28;113928;-78
2022/03/14 00:31:20;;;;;;;2.20;1.40;;;;;;;15.38;42.94;101636.53;4974746;28;114485;-78
2022/03/14 00:33:48;;;;;;;2.33;1.52;;;;;;;15.38;43.02;101636.53;4990332;28;124127;-78
2022/03/14 00:36:15;;;;;;;2.17;1.45;;;;;;;15.36;43.13;101632.22;4975036;28;123421;-80
2022/03/14 00:38:43;;;;;;;2.42;1.40;;;;;;;15.33;43.22;101643.06;4975799;28;114791;-80
2022/03/14 00:41:10;;;;;;;2.20;1.60;;;;;;;15.31;43.25;101640.50;4974381;28;113545;-80
2022/03/14 00:43:37;;;;;;;2.30;1.45;;;;;;;15.30;43.25;101644.09;4995019;28;124166;-80
2022/03/14 00:46:04;;;;;;;2.05;1.67;;;;;;;15.29;43.39;101646.81;4980698;28;124212;-80
2022/03/14 00:48:34;;;;;;;2.40;1.50;;;;;;;15.28;43.44;101656.66;5000858;28;113495;-80
2022/03/14 00:51:03;;;;;;;3.00;1.95;;;;;;;15.24;43.55;101660.44;4981866;28;113685;-80
2022/03/14 00:53:31;;;;;;;2.67;1.70;;;;;;;15.23;43.90;101657.84;4979861;28;123500;-80
2022/03/14 00:55:59;;;;;;;2.75;1.58;;;;;;;15.21;43.88;101660.56;4977059;28;123015;-79
2022/03/14 00:58:26;;;;;;;2.13;1.60;;;;;;;15.18;43.69;101660.72;4981883;28;113281;-78
2022/03/14 01:00:56;;;;;;;2.85;1.63;;;;;;;15.15;43.90;101666.22;4965755;28;113297;-78
2022/03/14 01:03:23;;;;;;;3.45;1.88;;;;;;;15.12;43.96;101667.22;4980697;28;123025;-78
2022/03/14 01:05:50;;;;;;;2.22;1.75;;;;;;;15.11;43.93;101664.66;4982196;28;123785;-78
2022/03/14 01:08:17;;;;;;;2.25;1.80;;;;;;;15.10;43.98;101673.59;4979981;28;113741;-78
2022/03/14 01:10:46;;;;;;;2.95;1.80;;;;;;;15.07;44.16;101679.09;4972338;28;112834;-78
2022/03/14 01:13:14;;;;;;;3.17;1.90;;;;;;;15.06;44.11;101680.03;4975181;28;124827;-78
2022/03/14 01:15:41;;;;;;;2.42;1.60;;;;;;;15.04;44.31;101685.44;4974178;28;123728;-79
2022/03/14 01:18:08;;;;;;;2.45;1.80;;;;;;;15.03;44.20;101682.84;4974883;28;113968;-79
2022/03/14 01:20:35;;;;;;;2.88;1.90;;;;;;;15.02;44.39;101686.47;4990022;28;113933;-78
2022/03/14 01:23:02;;;;;;;3.42;1.55;;;;;;;15.00;44.39;101683.88;4972935;28;124242;-79
2022/03/14 01:25:29;;;;;;;2.50;1.80;;;;;;;14.97;44.42;101690.25;4990283;28;121966;-78
2022/03/14 01:27:56;;;;;;;3.45;2.00;;;;;;;14.96;44.58;101688.50;4974689;28;112650;-78
2022/03/14 01:30:24;;;;;;;2.15;1.70;;;;;;;14.96;44.56;101688.50;4974177;28;114675;-78
2022/03/14 01:32:51;;;;;;;3.35;1.92;;;;;;;14.97;44.81;101698.25;4974572;28;125236;-78
2022/03/14 01:35:18;;;;;;;2.97;2.03;;;;;;;14.96;44.63;101706.31;4973748;28;123508;-78
2022/03/14 01:37:49;;;;;;;3.00;1.90;;;;;;;14.95;44.76;101697.44;4977810;28;113361;-79
2022/03/14 01:40:18;;;;;;;3.75;2.00;;;;;;;14.94;44.66;101695.72;4992602;28;114449;-78
2022/03/14 01:42:46;;;;;;;3.28;2.00;;;;;;;14.93;44.77;101704.66;5013816;28;123838;-78
2022/03/14 01:45:15;;;;;;;5.00;1.80;;;;;;;14.92;44.45;101708.28;4995794;28;122757;-78
2022/03/14 01:47:44;;;;;;;3.50;2.10;;;;;;;14.90;44.91;101704.81;5012485;28;116117;-78
2022/03/14 01:50:13;;;;;;;4.25;1.92;;;;;;;14.88;44.94;101704.03;4995799;28;113381;-78
2022/03/14 01:52:41;;;;;;;3.38;1.80;;;;;;;14.87;44.94;101704.97;5013306;28;123815;-78
2022/03/14 01:55:09;;;;;;;2.88;1.88;;;;;;;14.86;44.91;101708.59;4996604;28;121905;-78
2022/03/14 01:57:37;;;;;;;3.22;1.65;;;;;;;14.86;44.97;101707.69;5015443;28;114584;-78
2022/03/14 02:00:07;;;;;;;3.00;1.92;;;;;;;14.84;44.96;101705.09;4996058;28;113731;-79
2022/03/14 02:02:40;;;;;;;;;;;;;;;14.83;44.55;101711.38;5015236;28;124242;-79
2022/03/14 02:05:09;;;;;;;3.05;1.88;;;;;;;14.83;44.75;101703.38;5014169;28;123143;-78
2022/03/14 02:07:36;;;;;;;3.67;1.90;;;;;;;14.82;44.93;101706.97;4996495;28;113518;-79
2022/03/14 02:10:03;;;;;;;3.45;2.10;;;;;;;14.81;44.91;101699.94;5013144;28;114016;-79
2022/03/14 02:12:30;;;;;;;2.42;1.80;;;;;;;14.80;45.06;101708.84;4996943;28;122987;-79
2022/03/14 02:14:58;;;;;;;2.88;1.90;;;;;;;14.79;45.09;101717.81;5017913;28;122853;-79
2022/03/14 02:17:25;;;;;;;4.03;2.25;;;;;;;14.79;45.16;101712.47;5013323;28;114167;-78
2022/03/14 02:19:53;;;;;;;3.60;2.28;;;;;;;14.80;45.05;101716.84;5011988;28;116233;-78
2022/03/14 02:22:20;;;;;;;2.47;1.70;;;;;;;14.79;45.22;101712.47;5013223;28;122821;-79
2022/03/14 02:24:47;;;;;;;3.65;1.98;;;;;;;14.77;45.36;101725.03;5014526;28;123674;-79
2022/03/14 02:27:15;;;;;;;2.63;2.00;;;;;;;14.76;45.36;101717.94;5013665;28;114773;-79
2022/03/14 02:29:42;;;;;;;6.13;2.38;;;;;;;14.76;45.38;101720.63;4995402;28;113189;-79
2022/03/14 02:32:11;;;;;;;3.53;2.17;;;;;;;14.75;45.46;101729.56;4995683;28;123404;-78
2022/03/14 02:34:41;;;;;;;2.63;1.92;;;;;;;14.72;45.55;101730.56;5011373;28;124598;-79
2022/03/14 02:37:09;;;;;;;4.20;2.30;;;;;;;14.70;45.74;101734.25;5012865;28;113054;-78
2022/03/14 02:39:39;;;;;;;3.22;2.10;;;;;;;14.67;45.74;101739.72;5011762;28;114688;-79
2022/03/14 02:42:08;;;;;;;3.80;2.13;;;;;;;14.63;45.90;101738.16;5010579;28;123528;-79
2022/03/14 02:44:42;;;;;;;3.30;2.00;;;;;;;14.64;46.03;101734.56;5012815;28;125097;-79
2022/03/14 02:47:11;;;;;;;2.88;1.92;;;;;;;14.58;46.11;101736.56;4996165;28;114122;-79
2022/03/14 02:49:38;;;;;;;2.72;2.15;;;;;;;14.57;46.06;101734.81;5011833;28;113828;-77
2022/03/14 02:52:05;;;;;;;3.78;2.05;;;;;;;14.55;46.11;101736.69;5012271;28;124556;-79
2022/03/14 02:54:32;;;;;;;2.90;2.05;;;;;;;14.53;46.30;101733.22;5015840;28;123261;-79
2022/03/14 02:56:59;;;;;;;5.03;1.85;;;;;;;14.53;46.35;101741.22;4997022;28;113596;-78
2022/03/14 02:59:27;;;;;;;3.00;1.83;;;;;;;14.53;46.52;101743.03;4996490;28;113475;-79
2022/03/14 03:01:54;;;;;;;2.80;1.85;;;;;;;14.51;46.41;101745.75;5013872;28;123448;-79
2022/03/14 03:04:22;;;;;;;4.03;2.22;;;;;;;14.51;46.60;101740.44;4990930;28;123613;-79
2022/03/14 03:06:49;;;;;;;4.85;1.98;;;;;;;14.53;46.80;101748.34;4973228;28;114965;-79
2022/03/14 03:09:16;;;;;;;3.50;2.10;;;;;;;14.53;46.50;101754.53;4974214;28;112789;-79
2022/03/14 03:11:43;;;;;;;3.22;1.98;;;;;;;14.48;46.54;101761.88;4971912;28;122882;-79
2022/03/14 03:14:12;;;;;;;3.30;1.90;;;;;;;14.49;46.74;101776.97;4973715;28;124577;-79
2022/03/14 03:16:39;;;;;;;2.90;1.90;;;;;;;14.47;46.76;101776.16;4959222;28;113285;-79
2022/03/14 03:19:06;;;;;;;3.75;2.20;;;;;;;14.47;46.59;101778.84;4973028;28;113447;-79
2022/03/14 03:21:38;;;;;;;3.22;2.17;;;;;;;14.46;46.62;101784.22;4985938;28;123054;-78
2022/03/14 03:24:07;;;;;;;3.30;2.20;;;;;;;14.45;47.08;101783.38;4984558;28;123936;-79
2022/03/14 03:26:39;;;;;;;3.33;2.13;;;;;;;14.45;46.91;101788.69;4986949;28;114576;-79
2022/03/14 03:29:09;;;;;;;2.65;1.85;;;;;;;14.46;46.84;101789.56;4954687;28;114515;-79
2022/03/14 03:31:38;;;;;;;3.28;1.98;;;;;;;14.45;46.94;101804.69;4986396;28;122268;-78
2022/03/14 03:34:06;;;;;;;2.83;2.00;;;;;;;14.42;46.89;101804.81;4970067;28;124137;-79
2022/03/14 03:36:33;;;;;;;3.13;2.00;;;;;;;14.39;47.06;101810.28;4972140;28;114342;-79
2022/03/14 03:39:00;;;;;;;2.70;1.95;;;;;;;14.39;47.28;101820.94;4986918;28;112981;-78
2022/03/14 03:41:27;;;;;;;3.22;2.10;;;;;;;14.37;47.14;101818.38;4986766;28;122255;-79
2022/03/14 03:43:57;;;;;;;3.88;2.20;;;;;;;14.36;47.08;101818.44;4971999;28;122426;-78
2022/03/14 03:46:25;;;;;;;3.95;2.10;;;;;;;14.36;47.28;101826.44;4987910;28;112656;-80
2022/03/14 03:48:52;;;;;;;2.92;2.10;;;;;;;14.36;47.11;101842.44;4972617;28;113789;-80
2022/03/14 03:51:19;;;;;;;3.05;2.10;;;;;;;14.36;47.24;101848.59;4970236;28;124106;-79
2022/03/14 03:53:46;;;;;;;3.78;2.22;;;;;;;14.37;47.36;101849.47;4971865;28;123848;-80
2022/03/14 03:56:13;;;;;;;2.85;2.10;;;;;;;14.34;47.15;101855.81;4971413;28;114160;-80
2022/03/14 03:58:41;;;;;;;3.25;2.20;;;;;;;14.34;47.23;101868.28;4971114;28;113259;-79
2022/03/14 04:01:08;;;;;;;3.40;2.05;;;;;;;14.33;47.39;101866.53;4969654;28;124592;-80
2022/03/14 04:03:36;;;;;;;3.40;2.13;;;;;;;14.33;47.39;101863.88;4971325;28;123741;-80
2022/03/14 04:06:04;;;;;;;2.70;2.10;;;;;;;14.32;47.39;101868.34;4974138;28;114481;-79
2022/03/14 04:08:32;;;;;;;3.67;2.45;;;;;;;14.31;47.25;101871.06;4990942;28;113755;-80
2022/03/14 04:10:59;;;;;;;3.38;2.17;;;;;;;14.30;47.22;101880.00;4974086;28;124181;-79
2022/03/14 04:13:26;;;;;;;4.22;2.20;;;;;;;14.29;47.35;101883.59;4973338;28;124053;-80
2022/03/14 04:15:54;;;;;;;3.03;2.03;;;;;;;14.25;47.38;101882.00;4973508;28;115140;-80
2022/03/14 04:18:25;;;;;;;3.08;2.13;;;;;;;14.21;47.33;101892.78;4974536;28;114499;-78
2022/03/14 04:20:54;;;;;;;3.65;2.22;;;;;;;14.17;47.41;101912.50;4971819;28;123430;-79
2022/03/14 04:23:21;;;;;;;2.65;2.00;;;;;;;14.13;47.45;101916.25;4973881;28;123459;-79
2022/03/14 04:25:49;;;;;;;2.97;1.92;;;;;;;14.09;47.53;101914.66;4974140;28;114329;-79
2022/03/14 04:28:17;;;;;;;2.60;2.05;;;;;;;14.07;47.51;101911.19;4974779;28;114106;-78
2022/03/14 04:30:44;;;;;;;2.90;2.17;;;;;;;14.05;47.85;101913.00;4972809;28;124818;-79
2022/03/14 04:33:12;;;;;;;3.13;2.13;;;;;;;14.01;47.65;101916.75;4990967;28;123164;-79
2022/03/14 04:35:40;;;;;;;2.80;2.00;;;;;;;13.99;47.60;101923.94;4991609;28;114338;-79
2022/03/14 04:38:08;;;;;;;2.80;2.00;;;;;;;13.98;47.82;101922.22;4975922;28;113575;-79
2022/03/14 04:40:36;;;;;;;2.90;2.08;;;;;;;13.97;47.69;101933.78;4976877;28;123426;-79
2022/03/14 04:43:06;;;;;;;2.88;2.05;;;;;;;13.96;47.82;101942.72;4993146;28;122062;-78
2022/03/14 04:45:35;;;;;;;2.25;1.85;;;;;;;13.91;47.85;101934.91;4993064;28;112378;-78
2022/03/14 04:48:04;;;;;;;3.38;2.17;;;;;;;13.87;47.81;101957.28;4976616;28;112355;-78
2022/03/14 04:50:32;;;;;;;3.42;2.30;;;;;;;13.79;47.69;101944.28;4958595;28;122480;-78
2022/03/14 04:52:59;;;;;;;3.38;2.22;;;;;;;13.76;47.96;101952.38;4974933;28;123560;-78
2022/03/14 04:55:26;;;;;;;3.55;2.67;;;;;;;13.74;47.89;101959.56;4959470;28;114937;-79
2022/03/14 04:57:53;;;;;;;5.72;2.72;;;;;;;13.72;48.12;101957.91;4976402;28;112969;-79
2022/03/14 05:00:20;;;;;;;3.40;2.47;;;;;;;13.69;48.00;101964.22;4974693;28;123512;-79
2022/03/14 05:02:48;;;;;;;3.17;2.50;;;;;;;13.67;48.32;101968.72;4975141;28;123626;-78
2022/03/14 05:05:15;;;;;;;3.60;2.58;;;;;;;13.65;48.32;101967.06;4976039;28;114480;-79
2022/03/14 05:07:44;;;;;;;4.68;2.80;;;;;;;13.63;48.41;101975.09;4976231;28;115108;-78
2022/03/14 05:10:11;;;;;;;4.03;2.55;;;;;;;13.62;48.35;101978.72;4972432;28;123412;-79
2022/03/14 05:12:40;;;;;;;3.72;2.65;;;;;;;13.61;48.35;101982.28;4956981;28;125092;-78
2022/03/14 05:15:08;;;;;;;4.82;2.67;;;;;;;13.61;48.55;101998.25;4974410;28;114326;-79
2022/03/14 05:17:35;;;;;;;4.25;2.92;;;;;;;13.59;48.66;102000.13;4974176;28;112399;-80
2022/03/14 05:20:03;;;;;;;4.25;3.10;;;;;;;13.56;48.77;101995.81;4972334;28;122242;-79
2022/03/14 05:22:30;;;;;;;4.20;3.05;;;;;;;13.55;49.00;102009.16;4973070;28;123501;-79
2022/03/14 05:24:57;;;;;;;4.50;3.17;;;;;;;13.54;48.85;102012.72;4957485;28;113937;-79
2022/03/14 05:27:24;;;;;;;5.20;3.20;;;;;;;13.54;48.86;102020.72;4973163;28;114011;-79
2022/03/14 05:29:52;;;;;;;5.22;3.60;;;;;;;13.53;48.86;102016.34;4972197;28;123577;-78
2022/03/14 05:32:19;;;;;;;4.93;3.30;;;;;;;13.51;48.89;102018.19;4974059;28;124598;-79
2022/03/14 05:34:46;;;;;;;6.00;3.55;;;;;;;13.50;49.17;102021.78;4957022;28;112146;-79
2022/03/14 05:37:13;;;;;;;4.30;3.17;;;;;;;13.49;49.10;102031.56;4972712;28;113919;-79
2022/03/14 05:39:41;;;;;;;6.07;3.67;;;;;;;13.49;49.36;102041.34;4972806;28;123891;-79
2022/03/14 05:42:08;;;;;;;5.40;3.38;;;;;;;13.48;49.24;102045.78;4955645;28;123981;-79
2022/03/14 05:44:35;;;;;;;6.35;3.78;;;;;;;13.48;49.31;102036.94;4972265;28;113531;-79
2022/03/14 05:47:03;;;;;;;6.45;3.92;;;;;;;13.46;49.53;102036.13;4989653;28;113537;-79
2022/03/14 05:49:30;;;;;;;7.25;3.80;;;;;;;13.43;49.43;102048.63;4988294;28;123287;-79
2022/03/14 05:51:57;;;;;;;7.32;3.83;;;;;;;13.42;49.32;102056.66;4987965;28;123676;-79
2022/03/14 05:54:26;;;;;;;5.55;3.90;;;;;;;13.39;49.30;102062.97;4972349;28;114891;-79
2022/03/14 05:56:58;;;;;;;7.00;4.55;;;;;;;13.38;49.47;102061.22;4971316;28;114966;-79
2022/03/14 05:59:26;;;;;;;7.72;4.15;;;;;;;13.38;49.52;102073.69;4989027;28;122953;-79
2022/03/14 06:01:56;;;;;;;7.35;4.45;;;;;;;13.35;49.58;102077.28;4987015;28;122611;-78
2022/03/14 06:04:23;;;;;;;6.28;4.15;;;;;;;13.35;49.65;102071.97;4972213;28;115552;-79
2022/03/14 06:06:50;;;;;;;5.60;3.97;;;;;;;13.33;49.56;102073.81;4972147;28;112416;-80
2022/03/14 06:09:18;;;;;;;6.57;4.47;;;;;;;13.32;49.86;102066.78;4954619;28;124021;-79
2022/03/14 06:11:46;;;;;;;8.05;4.53;;;;;;;13.32;49.68;102082.75;4972183;28;124137;-80
2022/03/14 06:14:13;;;;;;;7.18;4.18;;;;;;;13.33;49.81;102079.16;4972455;28;113142;-79
2022/03/14 06:16:40;;;;;;;6.68;4.55;;;;;;;13.31;49.73;102081.00;4972782;28;114069;-80
2022/03/14 06:19:08;;;;;;;6.32;4.28;;;;;;;13.31;49.72;102091.66;4971150;28;123459;-80
2022/03/14 06:21:35;;;;;;;10.75;4.93;;;;;;;13.29;49.86;102097.91;4973410;28;123851;-79
2022/03/14 06:24:03;;;;;;;7.20;4.53;;;;;;;13.30;50.07;102110.28;4974513;28;113694;-79
2022/03/14 06:26:34;;;;;;;7.35;4.72;;;;;;;13.31;49.82;102107.59;4958091;28;113298;-80
2022/03/14 06:29:02;;;;;;;7.57;4.63;;;;;;;13.29;49.75;102114.75;4973646;28;124932;-79
2022/03/14 06:31:31;;;;;;;7.85;4.35;;;;;;;13.29;49.94;102120.06;4987961;28;122872;-79
2022/03/14 06:33:59;;;;;;;7.93;4.93;;;;;;;13.29;49.88;102125.38;4988888;28;113598;-80
2022/03/14 06:36:28;;;;;;;8.65;4.97;;;;;;;13.28;50.10;102129.00;4972492;28;112457;-79
2022/03/14 06:38:58;;;;;;;8.45;5.40;;;;;;;13.29;50.00;102137.84;4972544;28;123511;-79
2022/03/14 06:41:27;;;;;;;9.07;5.35;;;;;;;13.29;50.08;102136.03;4970092;28;122915;-79
2022/03/14 06:43:55;;;;;;;7.93;5.35;;;;;;;13.28;50.13;102142.28;4971106;28;114089;-79
2022/03/14 06:46:23;;;;;;;10.88;5.85;;;;;;;13.29;50.02;102135.16;4971207;28;115247;-79
2022/03/14 06:48:50;;;;;;;10.82;5.78;;;;;;;13.28;50.09;102139.63;4972245;28;124326;-80
2022/03/14 06:51:19;;;;;;;9.57;6.50;;;;;;;13.28;50.18;102136.09;4970057;28;124036;-80
2022/03/14 06:53:46;;;;;;;7.90;5.70;;;;;;;13.28;50.18;102142.28;4971791;28;113533;-79
2022/03/14 06:56:15;;;;;;;10.38;6.10;;;;;;;13.29;50.22;102144.00;4954015;28;113552;-79
2022/03/14 06:58:43;;;;;;;9.98;6.25;;;;;;;13.29;50.18;102146.69;4987310;28;123287;-78
2022/03/14 07:01:12;;;;;;;11.07;6.45;;;;;;;13.31;50.36;102150.19;4970528;28;123349;-78
2022/03/14 07:03:39;;;;;;;11.25;6.75;;;;;;;13.32;50.34;102157.25;4972983;28;113792;-79
2022/03/14 07:06:13;;;;;;;12.07;6.82;;;;;;;13.32;50.06;102162.56;4969475;28;114591;-78
2022/03/14 07:08:40;;;;;;;10.35;7.22;;;;;;;13.34;50.31;102163.38;4971299;28;123989;-79
2022/03/14 07:11:07;;;;;;;11.68;7.03;;;;;;;13.34;50.21;102160.72;4971212;28;124826;-79
2022/03/14 07:13:34;;;;;;;9.40;6.43;;;;;;;13.36;50.29;102169.53;4972569;28;113631;-79
2022/03/14 07:16:02;;;;;;;10.85;7.10;;;;;;;13.35;50.42;102162.44;4987695;28;113476;-79
2022/03/14 07:18:30;;;;;;;11.57;7.30;;;;;;;13.37;50.37;102171.28;4970770;28;122212;-79
2022/03/14 07:20:57;;;;;;;13.38;7.75;;;;;;;13.37;50.44;102165.94;4969029;28;123824;-79
2022/03/14 07:23:25;;;;;;;12.57;7.22;;;;;;;13.36;50.19;102180.16;4968121;28;113994;-79
2022/03/14 07:25:52;;;;;;;12.98;7.13;;;;;;;13.37;50.43;102171.28;4970809;28;113854;-79
2022/03/14 07:28:19;;;;;;;12.23;7.28;;;;;;;13.39;50.44;102177.41;4970583;28;124177;-80
2022/03/14 07:30:46;;;;;;;11.77;7.30;;;;;;;13.40;50.51;102163.16;4953285;28;123466;-80
2022/03/14 07:33:13;;;;;;;11.98;6.82;;;;;;;13.42;50.50;102169.28;4971998;28;115359;-79
2022/03/14 07:35:40;;;;;;;12.70;7.50;;;;;;;13.43;50.56;102172.84;4972219;28;114487;-80
2022/03/14 07:38:10;;;;;;;12.27;7.72;;;;;;;13.46;50.40;102179.84;4986301;28;123015;-80
2022/03/14 07:40:38;;;;;;;11.77;7.38;;;;;;;13.48;50.50;102178.00;4971007;28;123203;-79
2022/03/14 07:43:05;;;;;;;11.45;6.95;;;;;;;13.50;50.50;102181.47;4970675;28;114251;-80
2022/03/14 07:45:32;;;;;;;12.77;7.90;;;;;;;13.52;50.50;102191.13;4971357;28;112996;-81
2022/03/14 07:48:06;;;;;;;11.82;7.10;;;;;;;13.55;50.61;102184.84;4971464;28;126091;-80
2022/03/14 07:50:33;;;;;;;12.07;7.20;;;;;;;13.58;50.65;102188.25;4970336;28;123218;-79
2022/03/14 07:53:00;;;;;;;13.10;7.70;;;;;;;13.62;50.42;102194.34;4972286;28;113138;-79
2022/03/14 07:55:27;;;;;;;10.45;7.10;;;;;;;13.64;50.68;102195.16;4988337;28;113009;-80
2022/03/14 07:57:54;;;;;;;13.00;6.93;;;;;;;13.69;50.58;102203.81;4970139;28;122076;-80
2022/03/14 08:00:21;;;;;;;15.27;7.35;;;;;;;13.73;50.49;102210.81;4971458;28;123496;-80
2022/03/14 08:02:49;;;;;;;11.95;7.35;;;;;;;13.74;50.49;102223.19;4970581;28;114277;-80
2022/03/14 08:05:23;;;;;;;14.15;7.65;;;;;;;13.78;50.51;102229.25;4972231;28;114113;-81
2022/03/14 08:07:52;;;;;;;9.63;7.22;;;;;;;13.80;50.38;102232.72;4968477;28;124120;-80
2022/03/14 08:10:20;;;;;;;16.00;7.85;;;;;;;13.81;50.36;102235.34;4969414;28;124937;-80
2022/03/14 08:12:53;;;;;;;13.32;7.80;;;;;;;13.83;50.50;102237.97;4971139;28;114690;-80
2022/03/14 08:15:28;;;;;;;14.77;8.05;;;;;;;13.83;50.40;102237.97;4972215;28;114063;-80
2022/03/14 08:18:01;;;;;;;12.32;7.28;;;;;;;13.85;50.21;102240.56;4970195;28;123752;-80
2022/03/14 08:20:29;;;;;;;12.95;7.45;;;;;;;13.86;50.37;102244.97;4986423;28;124304;-79
2022/03/14 08:22:59;;;;;;;14.02;8.27;;;;;;;13.90;50.15;102254.56;4971606;28;114921;-80
2022/03/14 08:25:27;;;;;;;12.25;7.63;;;;;;;13.92;50.29;102253.59;4970048;28;115196;-79
2022/03/14 08:27:55;;;;;;;13.23;7.63;;;;;;;13.95;50.45;102257.94;4971661;28;123813;-80
2022/03/14 08:30:23;;;;;;;16.50;8.60;;;;;;;13.97;50.36;102256.09;4956073;28;123102;-79
2022/03/14 08:32:53;;;;;;;19.55;9.40;;;;;;;14.00;50.06;102261.31;4974439;28;112694;-79
2022/03/14 08:35:20;;;;;;;17.10;9.13;;;;;;;14.03;50.18;102266.50;4973771;28;113189;-80
2022/03/14 08:37:50;;;;;;;15.40;8.95;;;;;;;14.04;50.01;102267.41;4973311;28;123901;-80
2022/03/14 08:40:21;;;;;;;16.83;9.75;;;;;;;14.06;50.10;102271.75;4988660;28;123020;-80
2022/03/14 08:42:49;;;;;;;16.23;9.25;;;;;;;14.09;50.14;102276.97;4974428;28;114802;-79
2022/03/14 08:45:17;;;;;;;16.55;9.68;;;;;;;14.12;50.08;102291.97;4972604;28;112424;-80
2022/03/14 08:47:44;;;;;;;16.60;9.00;;;;;;;14.15;49.99;102287.38;4972748;28;124313;-80
2022/03/14 08:50:13;;;;;;;17.15;8.95;;;;;;;14.18;50.09;102297.94;4972995;28;123010;-79
2022/03/14 08:52:40;;;;;;;15.93;8.88;;;;;;;14.21;49.89;102307.59;4991753;28;113904;-80
2022/03/14 08:55:08;;;;;;;14.50;8.40;;;;;;;14.21;49.95;102313.81;4978453;28;114619;-79
2022/03/14 08:57:40;;;;;;;15.73;8.73;;;;;;;14.23;49.77;102316.41;4979461;28;123468;-80
2022/03/14 09:00:08;;;;;;;16.75;9.32;;;;;;;14.24;49.78;102319.94;4974405;28;124139;-80
2022/03/14 09:02:41;;;;;;;17.83;10.52;;;;;;;14.25;49.92;102329.69;4991824;28;112729;-79
2022/03/14 09:05:08;;;;;;;17.98;9.73;;;;;;;14.26;49.63;102331.41;4959973;28;113426;-80
2022/03/14 09:07:36;;;;;;;15.95;9.45;;;;;;;14.26;49.78;102331.41;4993591;28;123033;-80
2022/03/14 09:10:08;;;;;;;14.48;8.75;;;;;;;14.27;49.69;102330.50;4977521;28;124350;-80
2022/03/14 09:12:37;;;;;;;16.02;9.13;;;;;;;14.27;49.64;102344.69;4976555;28;115484;-79
2022/03/14 09:15:07;;;;;;;15.25;8.90;;;;;;;14.27;49.55;102339.34;4961695;28;114152;-80
2022/03/14 09:17:44;;;;;;;16.02;8.73;;;;;;;14.30;49.78;102338.41;4990846;28;124937;-79
2022/03/14 09:20:12;;;;;;;16.05;8.60;;;;;;;14.32;49.54;102347.19;4957738;28;122326;-80
2022/03/14 09:22:40;;;;;;;17.23;8.70;;;;;;;14.35;50.08;102341.75;4975035;28;113491;-80
2022/03/14 09:25:07;;;;;;;15.90;9.45;;;;;;;14.39;49.79;102344.25;4958791;28;113268;-80
2022/03/14 09:27:34;;;;;;;13.30;8.52;;;;;;;14.43;49.90;102350.34;4974483;28;123042;-81
2022/03/14 09:30:04;;;;;;;15.85;8.80;;;;;;;14.48;49.88;102353.69;4974756;28;122404;-80
2022/03/14 09:32:31;;;;;;;14.73;8.57;;;;;;;14.53;49.67;102362.38;4996290;28;113634;-80
2022/03/14 09:34:59;;;;;;;16.58;8.40;;;;;;;14.57;49.73;102364.03;4974079;28;113370;-79
2022/03/14 09:37:31;;;;;;;14.73;8.57;;;;;;;14.61;49.64;102370.13;4990364;28;123844;-80
2022/03/14 09:39:58;;;;;;;12.85;7.97;;;;;;;14.63;49.50;102370.06;4973996;28;123668;-80
2022/03/14 09:42:28;;;;;;;16.38;8.93;;;;;;;14.68;49.85;102370.78;4990370;28;113127;-80
2022/03/14 09:45:02;;;;;;;;;;;;;;;14.73;49.35;102379.47;4973850;28;113333;-80
2022/03/14 09:47:34;;;;;;;15.27;8.00;;;;;;;14.79;49.33;102377.44;4990489;28;124682;-80
2022/03/14 09:50:02;;;;;;;14.07;7.95;;;;;;;14.85;49.30;102383.47;4973401;28;123653;-80
2022/03/14 09:52:31;;;;;;;18.50;9.18;;;;;;;14.89;49.27;102385.94;4973967;28;114558;-80
2022/03/14 09:54:58;;;;;;;14.32;8.73;;;;;;;14.93;49.29;102402.72;4957801;28;113380;-80
2022/03/14 09:57:25;;;;;;;16.95;8.38;;;;;;;14.94;49.29;102404.47;4973522;28;124278;-81
2022/03/14 09:59:54;;;;;;;13.35;8.00;;;;;;;14.94;48.97;102410.66;4989613;28;123928;-80
2022/03/14 10:02:23;;;;;;;14.55;8.25;;;;;;;14.95;49.03;102411.53;4988156;28;114598;-80
2022/03/14 10:04:50;;;;;;;13.88;8.07;;;;;;;14.95;49.18;102416.88;4973400;28;115211;-80
2022/03/14 10:07:17;;;;;;;13.30;8.30;;;;;;;14.95;49.10;102417.72;4973003;28;124420;-80
2022/03/14 10:09:45;;;;;;;15.10;8.05;;;;;;;14.99;49.03;102430.03;4973628;28;123862;-80
2022/03/14 10:12:16;;;;;;;12.85;7.88;;;;;;;15.04;49.23;102421.84;4987731;28;113902;-80
2022/03/14 10:14:43;;;;;;;17.13;8.50;;;;;;;15.11;49.30;102433.19;4973706;28;115049;-80
2022/03/14 10:17:11;;;;;;;16.02;8.10;;;;;;;15.18;49.41;102429.31;4973974;28;124066;-81
2022/03/14 10:19:38;;;;;;;16.50;8.15;;;;;;;15.26;49.17;102427.22;4973653;28;123931;-80
2022/03/14 10:22:16;;;;;;;13.27;7.22;;;;;;;15.29;49.11;102429.75;4973796;28;114547;-80
2022/03/14 10:24:44;;;;;;;13.15;5.90;;;;;;;15.31;48.71;102424.38;4989634;28;112084;-80
2022/03/14 10:27:12;;;;;;;11.90;6.75;;;;;;;15.29;48.67;102431.56;4988380;28;124611;-81
2022/03/14 10:29:42;;;;;;;14.10;7.15;;;;;;;15.29;48.80;102431.56;4971994;28;124086;-79
2022/03/14 10:32:36;;;;;;;11.00;5.55;;;;;;;15.33;48.53;102428.75;4971891;28;113482;-79
2022/03/14 10:35:07;;;;;;;9.90;6.00;;;;;;;15.42;48.71;102426.63;4973644;28;113274;-80
2022/03/14 10:37:35;;;;;;;10.43;5.75;;;;;;;15.51;48.83;102443.13;4972968;28;122997;-81
2022/03/14 10:40:06;;;;;;;9.73;5.40;;;;;;;15.59;48.43;102445.50;4973460;28;123450;-80
2022/03/14 10:42:42;;;;;;;10.18;5.13;;;;;;;15.63;48.35;102452.44;4972199;28;114053;-81
2022/03/14 10:45:11;;;;;;;10.15;5.55;;;;;;;15.68;48.05;102449.59;4973768;28;113710;-80
2022/03/14 10:47:45;;;;;;;12.07;5.55;;;;;;;15.72;48.10;102452.06;4971659;28;124129;-80
2022/03/14 10:50:34;;;;;;;10.73;5.13;;;;;;;15.80;47.95;102458.94;4972040;28;121900;-80
2022/03/14 10:53:16;;;;;;;10.82;4.70;;;;;;;15.83;47.81;102454.34;4972268;28;115889;-80
2022/03/14 10:55:45;;;;;;;10.25;4.50;;;;;;;15.90;47.73;102449.63;4972277;28;114543;-80
2022/03/14 10:58:15;;;;;;;7.78;4.38;;;;;;;15.97;47.44;102445.75;4971751;28;123140;-80
2022/03/14 11:00:54;;;;;;;9.05;4.05;;;;;;;16.03;47.48;102450.84;4971758;28;124165;-80
2022/03/14 11:03:30;;;;;;;9.05;4.38;;;;;;;16.08;47.38;102450.63;4955431;28;113716;-80
2022/03/14 11:06:02;;;;;;;10.05;4.68;;;;;;;16.13;47.41;102446.84;4973335;28;114232;-80
2022/03/14 11:08:42;;;;;;;9.40;4.40;;;;;;;16.19;47.03;102450.19;4969393;28;124385;-80
2022/03/14 11:11:14;;;;;;;7.82;4.25;;;;;;;16.27;47.46;102458.75;4969908;28;124515;-80
2022/03/14 11:13:46;;;;;;;9.43;4.47;;;;;;;16.32;47.00;102462.09;4989420;28;113386;-80
2022/03/14 11:16:22;;;;;;;7.75;4.00;;;;;;;16.37;46.66;102459.19;4972591;28;114153;-80
2022/03/14 11:18:51;;;;;;;10.13;3.72;;;;;;;16.39;46.63;102463.56;4954920;28;123389;-81
2022/03/14 11:21:20;;;;;;;11.73;3.85;;;;;;;16.41;46.13;102461.69;4971399;28;124608;-80